Terminal Aerodrome Forecast
Issued by NWS Sterling, VA

Home | Current Version | Previous Version | Text Only | Print | Product List | Glossary On
Versions: 1 2 3 4 5 6 7 8 9 10 11 12 13 14 15 16 17 18 19
731
FTUS41 KLWX 011133
TAFMRB
TAF
KMRB 011133Z 0112/0212 16009KT 2SM -RA OVC008
     FM011700 16006KT P6SM BKN020
     FM012100 15006KT P6SM -SHRA VCTS BKN015CB
     FM020000 11004KT 5SM -SHRA BKN020
     FM020300 VRB03KT 2SM -SHRA BKN025
     FM020900 VRB03KT 2SM BR OVC010=

USA.gov is the U.S. government's official web portal to all federal, state and local government web resources and services.